ENGLEBRIGHT (USACE) (ENG)

Elevation: 551' · YUBA R basin · Operator: US Army Corps of Engineers

Provisional data, subject to change.
Query executed Sunday at 22:02:55   clock

Select a sensor type for a plot of data.
Note: Reservoir Flows are daily averages.

Earlier

Date RES ELE    STORAGE    RES CHG    OUTFLOW    INFLOW    PPT INC   
 FEET   AF   AF   CFS   CFS   INCHES  
12/26/2014 524.15 67668 -- -- -13 0.00
12/27/2014 523.49 67145 -- -- -72 0.00
12/28/2014 522.73 66547 -- -- 356 0.00
12/29/2014 521.91 65907 -640 -- 334 0.00
12/30/2014 521.09 65271 -636 -- 311 0.00
12/31/2014 520.37 64716 -555 -- -- --
01/01/2015 519.64 64158 -558 -- 276 0.00
01/02/2015 520.34 64693 535 -- 826 0.00
01/03/2015 520.60 64893 200 -- 657 0.00
01/04/2015 520.73 64993 100 -- 608 0.00
01/05/2015 520.89 65116 123 -- 620 0.00
01/06/2015 520.83 65070 -46 -- 535 0.00
01/07/2015 519.93 64379 -691 -- 209 0.00
01/08/2015 519.84 64310 -69 -- 521 0.00
01/09/2015 519.11 63755 -555 -- 276 0.00
01/10/2015 518.21 63074 -681 -- 211 0.00
01/11/2015 517.78 62751 -323 -- 391 0.00
01/12/2015 517.29 62385 -366 -- 369 0.00
01/13/2015 517.35 62430 45 -- 575 0.00
01/14/2015 517.75 62729 299 -- 704 0.00
01/15/2015 518.30 63142 413 -- 761 0.00
01/16/2015 519.44 64005 863 -- 991 0.00
01/17/2015 519.59 64120 115 -- 613 0.00
01/18/2015 518.59 63361 -759 -- 172 0.00
01/19/2015 517.90 62841 -520 -- 292 0.00
01/20/2015 519.08 63732 891 -- 1003 0.00
01/21/2015 519.45 64013 281 -- 697 0.00
01/22/2015 520.68 64954 941 -- 1031 0.00
01/23/2015 521.15 65317 363 -- 740 0.00
01/24/2015 521.11 65286 -31 -- -- --
01/25/2015 -- -- -- -- -- --

Later | Latest

Warning! This data is preliminary and subject to revision.

Show ENG Map | Plot ENG Data | 1 Month ENG Data | Real-Time ENG Data | ENG Info